Time;durP1;ratioP1;P1;durP2;ratioP2;P2;SDS_P1;SDS_P2;PMS_P1;PMS_P2;Temp;Humidity;BMP_temperature;BMP_pressure;BME280_temperature;BME280_humidity;BME280_pressure;Samples;Min_cycle;Max_cycle;Signal;HPM_P1;HPM_P2
2023/01/04 06:58:23;;;;;;;7.20;4.32;;;10.00;99.90;;;;;;5106753;27;20673;-64
2023/01/04 07:00:53;;;;;;;7.60;4.63;;;10.00;99.90;;;;;;5098302;28;20524;-68
2023/01/04 07:03:18;;;;;;;9.43;5.57;;;10.10;99.90;;;;;;5123630;28;20020;-65
2023/01/04 07:05:44;;;;;;;11.77;5.38;;;10.20;99.90;;;;;;5117604;27;20110;-64
2023/01/04 07:08:11;;;;;;;8.82;6.10;;;10.30;99.90;;;;;;5108512;28;20047;-66
2023/01/04 07:10:36;;;;;;;11.20;5.10;;;10.40;99.90;;;;;;5112577;28;20367;-64
2023/01/04 07:13:02;;;;;;;9.68;4.72;;;10.50;99.90;;;;;;5129475;28;20023;-65
2023/01/04 07:15:28;;;;;;;7.82;5.10;;;10.50;99.90;;;;;;5129967;28;20038;-69
2023/01/04 07:17:54;;;;;;;7.88;4.65;;;10.60;99.90;;;;;;5124666;28;20023;-62
2023/01/04 07:20:19;;;;;;;9.02;4.88;;;10.60;99.90;;;;;;5128748;28;20031;-62
2023/01/04 07:22:45;;;;;;;11.50;5.30;;;10.70;99.90;;;;;;5130175;28;20023;-62
2023/01/04 07:25:10;;;;;;;10.93;5.10;;;10.70;99.90;;;;;;5126480;28;20106;-63
2023/01/04 07:27:36;;;;;;;9.05;4.82;;;10.70;99.90;;;;;;5112092;28;20031;-62
2023/01/04 07:30:03;;;;;;;8.18;4.68;;;10.80;99.90;;;;;;5110389;28;20433;-63
2023/01/04 07:32:28;;;;;;;8.27;3.97;;;10.80;99.90;;;;;;5120319;28;20388;-64
2023/01/04 07:34:54;;;;;;;7.47;4.75;;;10.80;99.90;;;;;;5126228;28;20043;-63
2023/01/04 07:37:19;;;;;;;8.80;4.55;;;10.80;99.90;;;;;;5129399;28;20039;-62
2023/01/04 07:39:47;;;;;;;10.10;4.43;;;10.80;99.90;;;;;;5126526;28;20319;-65
2023/01/04 07:42:13;;;;;;;8.73;4.32;;;10.80;99.90;;;;;;5129886;28;20023;-63
2023/01/04 07:44:39;;;;;;;7.43;3.90;;;10.90;99.90;;;;;;5117280;28;20149;-62
2023/01/04 07:47:05;;;;;;;8.77;4.38;;;10.90;99.90;;;;;;5108321;28;20035;-62
2023/01/04 07:49:30;;;;;;;7.40;4.13;;;10.90;99.90;;;;;;5108974;28;20027;-61
2023/01/04 07:51:56;;;;;;;9.20;4.60;;;10.90;99.90;;;;;;5128350;28;20019;-62
2023/01/04 07:54:23;;;;;;;8.80;4.35;;;10.90;99.90;;;;;;5117381;28;20039;-63
2023/01/04 07:56:49;;;;;;;8.82;4.10;;;10.90;99.90;;;;;;5108830;28;20047;-62
2023/01/04 07:59:16;;;;;;;13.35;5.25;;;10.90;99.90;;;;;;5108586;28;20031;-62
2023/01/04 08:01:42;;;;;;;6.82;4.20;;;10.90;99.90;;;;;;5108421;28;20098;-63
2023/01/04 08:04:09;;;;;;;8.95;5.20;;;10.90;99.90;;;;;;5108537;28;20058;-63
2023/01/04 08:06:36;;;;;;;10.70;4.30;;;10.90;99.90;;;;;;5113447;28;20101;-62
2023/01/04 08:09:03;;;;;;;9.13;4.45;;;11.00;99.90;;;;;;5104645;28;20115;-63
2023/01/04 08:11:29;;;;;;;10.15;5.18;;;10.90;99.90;;;;;;5113060;28;20519;-62
2023/01/04 08:13:55;;;;;;;6.50;4.13;;;11.00;99.90;;;;;;5108144;28;20058;-63
2023/01/04 08:16:31;;;;;;;9.43;4.70;;;11.00;99.90;;;;;;5108197;28;20032;-63
2023/01/04 08:19:00;;;;;;;10.05;3.88;;;11.00;99.90;;;;;;5096540;28;20477;-62
2023/01/04 08:21:28;;;;;;;6.78;3.30;;;11.00;99.90;;;;;;5094310;28;20384;-62
2023/01/04 08:23:54;;;;;;;6.30;3.30;;;11.00;99.90;;;;;;5094535;28;20032;-64
2023/01/04 08:26:20;;;;;;;9.45;3.47;;;11.00;99.90;;;;;;5094469;28;20115;-61
2023/01/04 08:28:46;;;;;;;8.05;3.35;;;11.00;99.90;;;;;;5094085;28;20111;-62
2023/01/04 08:31:19;;;;;;;8.32;3.70;;;11.00;99.90;;;;;;5110269;28;20102;-63
2023/01/04 08:33:44;;;;;;;6.32;3.78;;;11.00;99.90;;;;;;5114984;28;20023;-65
2023/01/04 08:36:21;;;;;;;7.82;3.95;;;11.00;99.90;;;;;;5108522;28;20479;-64
2023/01/04 08:38:47;;;;;;;13.35;4.50;;;11.10;99.90;;;;;;5102363;28;20020;-65
2023/01/04 08:41:14;;;;;;;7.57;4.28;;;11.10;99.90;;;;;;5098733;28;20024;-65
2023/01/04 08:43:40;;;;;;;7.88;4.15;;;11.10;99.90;;;;;;5093536;28;20046;-63
2023/01/04 08:46:06;;;;;;;8.40;5.10;;;11.10;99.90;;;;;;5095538;28;20059;-67
2023/01/04 08:48:33;;;;;;;8.25;4.28;;;11.10;99.90;;;;;;5093451;28;20028;-63
2023/01/04 08:51:00;;;;;;;8.65;4.70;;;11.10;99.90;;;;;;5093471;28;20035;-64
2023/01/04 08:53:26;;;;;;;9.38;4.53;;;11.10;99.90;;;;;;5105142;28;20026;-63
2023/01/04 08:55:53;;;;;;;7.57;4.25;;;11.10;99.90;;;;;;5109512;28;20027;-63
2023/01/04 08:58:19;;;;;;;7.45;4.05;;;11.20;99.90;;;;;;5113557;28;20063;-64
2023/01/04 09:00:45;;;;;;;7.32;4.10;;;11.20;99.90;;;;;;5107396;28;20016;-65
2023/01/04 09:03:11;;;;;;;7.13;3.55;;;11.20;99.90;;;;;;5091657;28;20038;-63
2023/01/04 09:05:36;;;;;;;7.05;3.97;;;11.20;99.90;;;;;;5094283;28;20034;-65
2023/01/04 09:08:02;;;;;;;7.30;3.15;;;11.20;99.90;;;;;;5105449;28;20106;-64
2023/01/04 09:10:28;;;;;;;7.40;3.45;;;11.20;99.90;;;;;;5111822;28;20035;-66
2023/01/04 09:12:54;;;;;;;7.75;3.63;;;11.30;99.90;;;;;;5114414;28;20502;-62
2023/01/04 09:15:19;;;;;;;7.60;3.80;;;11.30;99.90;;;;;;5114087;28;20031;-67
2023/01/04 09:17:45;;;;;;;8.00;3.60;;;11.30;99.90;;;;;;5113707;28;20062;-63
2023/01/04 09:20:11;;;;;;;7.68;3.88;;;11.30;99.90;;;;;;5113169;28;20019;-66
2023/01/04 09:22:37;;;;;;;11.73;4.40;;;11.30;99.90;;;;;;5112159;28;20052;-66
2023/01/04 09:25:03;;;;;;;6.32;3.75;;;11.30;99.90;;;;;;5111563;28;20468;-62
2023/01/04 09:27:31;;;;;;;7.65;3.92;;;11.40;99.90;;;;;;5110234;28;20047;-62
2023/01/04 09:29:57;;;;;;;5.72;3.72;;;11.50;99.90;;;;;;5094014;28;20070;-66
2023/01/04 09:32:22;;;;;;;6.32;3.63;;;11.40;99.90;;;;;;5108187;28;20432;-63
2023/01/04 09:34:48;;;;;;;6.88;3.40;;;11.40;99.90;;;;;;5110298;28;20249;-66
2023/01/04 09:37:14;;;;;;;7.22;3.90;;;11.50;99.90;;;;;;5093291;28;20032;-63
2023/01/04 09:39:40;;;;;;;6.65;3.60;;;11.50;99.90;;;;;;5092783;28;20481;-61
2023/01/04 09:42:46;;;;;;;6.82;3.95;;;11.60;99.90;;;;;;5093133;28;20031;-62
2023/01/04 09:45:21;;;;;;;6.13;3.60;;;11.60;99.90;;;;;;5091110;28;20032;-63
2023/01/04 09:48:10;;;;;;;5.40;3.33;;;11.60;99.90;;;;;;5093164;28;20385;-64
2023/01/04 09:51:08;;;;;;;6.85;3.65;;;11.60;99.90;;;;;;5109261;28;20023;-67
2023/01/04 09:53:45;;;;;;;8.88;3.22;;;11.60;99.90;;;;;;5103519;28;20047;-62
2023/01/04 09:56:28;;;;;;;7.35;3.38;;;11.60;99.90;;;;;;5092360;28;20047;-64
2023/01/04 09:58:54;;;;;;;5.00;2.38;;;11.60;99.90;;;;;;5093253;28;20031;-63
2023/01/04 10:01:43;;;;;;;6.03;3.13;;;11.70;99.90;;;;;;5092099;28;20046;-61
2023/01/04 10:04:28;;;;;;;4.47;3.08;;;11.70;99.90;;;;;;5090319;28;20028;-59
2023/01/04 10:06:53;;;;;;;4.13;2.70;;;11.70;99.90;;;;;;5092749;28;20101;-63
2023/01/04 10:09:20;;;;;;;5.43;2.78;;;11.70;99.90;;;;;;5093047;28;20024;-61
2023/01/04 10:12:08;;;;;;;5.47;2.50;;;11.70;99.90;;;;;;5092976;28;20056;-63
2023/01/04 10:14:34;;;;;;;4.65;2.40;;;11.70;99.90;;;;;;5101056;28;20039;-66
2023/01/04 10:17:33;;;;;;;6.40;2.50;;;11.70;99.90;;;;;;5112851;28;20129;-62
2023/01/04 10:20:30;;;;;;;6.38;2.50;;;11.70;99.90;;;;;;5098955;28;20458;-62
2023/01/04 10:23:07;;;;;;;4.70;2.53;;;11.80;99.90;;;;;;5112455;28;20027;-63
2023/01/04 10:25:47;;;;;;;4.82;2.33;;;11.70;99.90;;;;;;5108159;28;20070;-66
2023/01/04 10:28:17;;;;;;;5.18;2.80;;;11.80;99.90;;;;;;5093548;28;20098;-61
2023/01/04 10:30:45;;;;;;;5.55;2.65;;;11.80;99.90;;;;;;5094038;28;20078;-65
2023/01/04 10:33:24;;;;;;;5.65;3.10;;;11.80;99.90;;;;;;5111057;28;20036;-63
2023/01/04 10:35:50;;;;;;;5.57;2.30;;;11.80;99.90;;;;;;5110443;28;20027;-61
2023/01/04 10:38:24;;;;;;;4.18;2.45;;;11.80;99.90;;;;;;5112771;28;20074;-66
2023/01/04 10:40:50;;;;;;;3.13;2.22;;;11.80;99.90;;;;;;5111504;28;20024;-68
2023/01/04 10:43:15;;;;;;;3.97;2.40;;;11.80;99.90;;;;;;5111610;28;20554;-61
2023/01/04 10:46:04;;;;;;;2.30;1.90;;;11.80;99.90;;;;;;5110491;28;20073;-64
2023/01/04 10:49:21;;;;;;;3.90;2.10;;;11.90;99.90;;;;;;5112995;28;20102;-62
2023/01/04 10:52:04;;;;;;;3.53;2.05;;;11.90;99.90;;;;;;5099217;28;20039;-60
2023/01/04 10:54:32;;;;;;;2.92;1.90;;;11.90;99.90;;;;;;5099819;28;20095;-65
2023/01/04 10:57:06;;;;;;;2.60;1.73;;;11.90;99.90;;;;;;5091497;28;20085;-63
2023/01/04 10:59:42;;;;;;;3.60;2.08;;;12.00;99.90;;;;;;5094423;28;20058;-64
2023/01/04 11:02:25;;;;;;;2.70;1.73;;;12.00;99.90;;;;;;5112491;28;20026;-65
2023/01/04 11:05:18;;;;;;;3.83;2.20;;;11.90;99.90;;;;;;5070660;28;20013;-65
2023/01/04 11:08:07;;;;;;;3.53;2.03;;;12.00;99.90;;;;;;5077046;28;20047;-62
2023/01/04 11:10:47;;;;;;;4.03;2.03;;;12.00;99.90;;;;;;5071705;28;20389;-65
2023/01/04 11:13:13;;;;;;;4.03;2.40;;;12.00;99.90;;;;;;5071696;28;20020;-63
2023/01/04 11:15:41;;;;;;;3.35;1.88;;;12.00;99.90;;;;;;5079130;28;20123;-64
2023/01/04 11:18:08;;;;;;;3.97;2.00;;;12.00;99.90;;;;;;5103947;28;20028;-65
2023/01/04 11:20:34;;;;;;;4.30;1.77;;;12.00;99.90;;;;;;5092356;28;20024;-65
2023/01/04 11:23:24;;;;;;;2.03;1.48;;;12.10;99.90;;;;;;5091508;28;20023;-67
2023/01/04 11:25:56;;;;;;;1.80;1.33;;;12.10;99.90;;;;;;5095341;28;20030;-65
2023/01/04 11:28:50;;;;;;;2.35;1.50;;;12.10;99.90;;;;;;5091985;28;20376;-62
2023/01/04 11:31:27;;;;;;;3.20;1.60;;;12.10;99.90;;;;;;5091511;28;20069;-61
2023/01/04 11:34:01;;;;;;;1.80;1.42;;;12.10;99.90;;;;;;5091682;28;20051;-61
2023/01/04 11:36:41;;;;;;;2.58;1.70;;;12.10;99.90;;;;;;5090100;28;20393;-63
2023/01/04 11:39:27;;;;;;;2.17;1.50;;;12.10;99.90;;;;;;5095126;28;20035;-64
2023/01/04 11:42:03;;;;;;;2.75;1.80;;;12.10;99.90;;;;;;5106424;27;20051;-64
2023/01/04 11:44:31;;;;;;;2.85;1.60;;;12.10;99.90;;;;;;5100304;28;20020;-65
2023/01/04 11:47:27;;;;;;;1.92;1.48;;;12.20;99.90;;;;;;5083358;28;20026;-61
2023/01/04 11:49:53;;;;;;;2.47;1.52;;;12.20;99.90;;;;;;5087013;28;20384;-64
2023/01/04 11:52:36;;;;;;;2.22;1.50;;;12.10;99.90;;;;;;5097893;28;20054;-62
2023/01/04 11:55:29;;;;;;;2.60;1.85;;;12.10;99.90;;;;;;5097525;28;20161;-62
2023/01/04 11:58:26;;;;;;;2.30;1.50;;;12.10;99.90;;;;;;5095137;28;20040;-62
2023/01/04 12:00:54;;;;;;;2.30;1.67;;;12.10;99.90;;;;;;5087522;28;20389;-64
2023/01/04 12:03:25;;;;;;;4.10;1.77;;;12.10;99.90;;;;;;5107674;28;20110;-62
2023/01/04 12:05:51;;;;;;;2.60;1.50;;;12.10;99.90;;;;;;5093639;28;20115;-64
2023/01/04 12:08:33;;;;;;;3.58;1.73;;;12.10;99.90;;;;;;5094462;28;20119;-63
2023/01/04 12:11:01;;;;;;;3.25;2.08;;;12.20;99.90;;;;;;5095206;28;20020;-64
2023/01/04 12:13:28;;;;;;;3.58;2.03;;;12.10;99.90;;;;;;5093740;28;20024;-63
2023/01/04 12:16:03;;;;;;;3.78;2.20;;;12.10;99.90;;;;;;5099188;28;20026;-63
2023/01/04 12:18:40;;;;;;;5.40;2.30;;;12.10;99.90;;;;;;5096325;28;20035;-65
2023/01/04 12:21:24;;;;;;;4.07;2.22;;;12.10;99.90;;;;;;5115043;28;20111;-62
2023/01/04 12:23:51;;;;;;;3.85;2.55;;;12.20;99.90;;;;;;5101521;28;20024;-64
2023/01/04 12:26:17;;;;;;;4.32;2.03;;;12.20;99.90;;;;;;5095090;28;20070;-63
2023/01/04 12:28:46;;;;;;;3.78;2.60;;;12.20;99.90;;;;;;5094093;28;20051;-65
2023/01/04 12:31:18;;;;;;;3.38;2.35;;;12.20;99.90;;;;;;5098790;28;20024;-63
2023/01/04 12:34:10;;;;;;;6.10;2.40;;;12.20;99.90;;;;;;5092210;28;20070;-66
2023/01/04 12:36:38;;;;;;;8.18;2.60;;;12.20;99.90;;;;;;5080103;28;20040;-64
2023/01/04 12:39:04;;;;;;;3.35;2.10;;;12.30;99.90;;;;;;5114733;28;20031;-63
2023/01/04 12:41:32;;;;;;;3.53;2.28;;;12.30;99.90;;;;;;5113530;28;20038;-64
2023/01/04 12:43:58;;;;;;;5.80;2.47;;;12.40;99.90;;;;;;5103536;28;20477;-66
2023/01/04 12:49:26;;;;;;;5.63;2.78;;;12.50;99.90;;;;;;5095108;28;20050;-63
2023/01/04 12:52:06;;;;;;;4.60;2.47;;;12.50;99.90;;;;;;5094551;28;20023;-65
2023/01/04 12:55:04;;;;;;;5.80;2.95;;;12.50;99.90;;;;;;5105656;28;20514;-63
2023/01/04 12:57:36;;;;;;;7.93;3.05;;;12.60;99.90;;;;;;5059738;28;20055;-64
2023/01/04 13:00:13;;;;;;;6.97;3.00;;;12.60;99.90;;;;;;5113522;28;20073;-64
2023/01/04 13:02:46;;;;;;;5.15;3.05;;;12.60;99.90;;;;;;5114153;28;20306;-67
2023/01/04 13:05:17;;;;;;;5.53;3.15;;;12.70;99.90;;;;;;5103932;28;20028;-63
2023/01/04 13:08:00;;;;;;;5.40;2.60;;;12.70;99.90;;;;;;5111901;28;20031;-62
2023/01/04 13:10:28;;;;;;;6.57;2.70;;;12.70;99.90;;;;;;5114823;28;20096;-62
2023/01/04 13:13:01;;;;;;;5.70;3.22;;;12.70;99.90;;;;;;5104063;28;20081;-64
2023/01/04 13:16:11;;;;;;;5.57;2.50;;;12.80;99.90;;;;;;5093663;28;20034;-63
2023/01/04 13:18:46;;;;;;;7.07;2.55;;;12.80;99.90;;;;;;5105954;28;20036;-67
2023/01/04 13:21:39;;;;;;;5.72;2.60;;;12.80;99.90;;;;;;5074281;28;20040;-66
2023/01/04 13:24:31;;;;;;;7.28;2.83;;;12.90;99.90;;;;;;5090407;28;20028;-66
2023/01/04 13:27:05;;;;;;;5.65;2.22;;;12.90;99.90;;;;;;5073463;28;20384;-64
2023/01/04 13:29:33;;;;;;;4.75;2.08;;;12.90;99.90;;;;;;5085392;28;20053;-65
2023/01/04 13:32:07;;;;;;;6.72;2.75;;;13.00;99.90;;;;;;5108702;28;20036;-66
2023/01/04 13:34:37;;;;;;;5.63;2.30;;;13.00;99.90;;;;;;5113382;28;20412;-61
2023/01/04 13:37:16;;;;;;;5.57;2.20;;;13.00;99.90;;;;;;5098473;28;20033;-68
2023/01/04 13:39:50;;;;;;;7.60;2.40;;;13.10;99.90;;;;;;5093074;28;20061;-61
2023/01/04 13:42:35;;;;;;;7.40;2.40;;;13.10;99.90;;;;;;5093429;28;20028;-61
2023/01/04 13:45:28;;;;;;;5.13;2.10;;;13.10;99.90;;;;;;5092850;28;20020;-61
2023/01/04 13:48:00;;;;;;;5.88;2.38;;;13.10;99.90;;;;;;5093526;28;20024;-61
2023/01/04 13:50:38;;;;;;;6.43;2.20;;;13.10;99.90;;;;;;5092421;28;20028;-64
2023/01/04 13:53:05;;;;;;;5.90;2.53;;;13.20;99.90;;;;;;5093060;28;20066;-61
2023/01/04 13:55:32;;;;;;;4.72;2.35;;;13.20;99.90;;;;;;5093163;28;20394;-61
2023/01/04 13:58:00;;;;;;;6.03;2.28;;;13.20;99.90;;;;;;5091853;28;20508;-62
2023/01/04 14:00:35;;;;;;;4.72;2.40;;;13.20;99.90;;;;;;5092766;28;20024;-61
2023/01/04 14:03:39;;;;;;;4.18;2.30;;;13.20;99.90;;;;;;5092890;28;20024;-65
2023/01/04 14:06:13;;;;;;;4.05;2.28;;;13.30;99.90;;;;;;5100906;28;20027;-62
2023/01/04 14:08:46;;;;;;;8.63;2.90;;;13.30;99.90;;;;;;5111446;28;20483;-66
2023/01/04 14:14:45;;;;;;;4.60;2.40;;;13.30;99.90;;;;;;5112846;28;20127;-64
2023/01/04 14:17:25;;;;;;;7.18;2.42;;;13.30;99.90;;;;;;5113007;28;20122;-65
2023/01/04 14:20:03;;;;;;;6.22;2.90;;;13.30;99.90;;;;;;5096807;28;20094;-67
2023/01/04 14:22:34;;;;;;;8.40;2.70;;;13.20;99.90;;;;;;5100869;28;20031;-63
2023/01/04 14:25:35;;;;;;;5.22;2.50;;;13.30;99.90;;;;;;5110435;28;20026;-64
2023/01/04 14:28:17;;;;;;;6.15;2.60;;;13.20;99.90;;;;;;5112984;28;20023;-65
2023/01/04 14:30:47;;;;;;;7.40;2.70;;;13.20;99.90;;;;;;5101136;28;20039;-63
2023/01/04 14:33:16;;;;;;;8.35;2.78;;;13.20;99.90;;;;;;5094224;28;20115;-66
2023/01/04 14:35:42;;;;;;;7.57;2.75;;;13.10;99.90;;;;;;5092405;28;20024;-66
2023/01/04 14:38:16;;;;;;;4.53;2.45;;;13.20;99.90;;;;;;5092340;28;20590;-63
2023/01/04 14:40:43;;;;;;;4.80;2.17;;;13.20;99.90;;;;;;5092373;28;20070;-65
2023/01/04 14:43:30;;;;;;;4.75;2.20;;;13.20;99.90;;;;;;5091882;28;20496;-66
2023/01/04 14:45:55;;;;;;;5.60;2.13;;;13.20;99.90;;;;;;5090160;28;20031;-63
2023/01/04 14:48:21;;;;;;;5.05;1.98;;;13.20;99.90;;;;;;5090888;28;20024;-66
2023/01/04 14:50:46;;;;;;;6.25;2.08;;;13.20;99.90;;;;;;5092603;28;20052;-68
2023/01/04 14:53:12;;;;;;;4.82;2.20;;;13.10;99.90;;;;;;5092420;28;20630;-65
2023/01/04 14:55:38;;;;;;;4.40;1.98;;;13.10;99.90;;;;;;5103477;28;20110;-61
2023/01/04 14:58:03;;;;;;;5.63;2.20;;;13.10;99.90;;;;;;5111654;28;20052;-64
2023/01/04 15:00:29;;;;;;;6.82;2.30;;;13.10;99.90;;;;;;5106383;28;20088;-67
2023/01/04 15:02:54;;;;;;;6.13;1.98;;;13.00;99.90;;;;;;5096277;28;20035;-68
2023/01/04 15:05:21;;;;;;;4.95;1.90;;;13.00;99.90;;;;;;5092141;28;20028;-64
2023/01/04 15:07:47;;;;;;;7.30;1.70;;;13.00;99.90;;;;;;5090492;28;20027;-67
2023/01/04 15:10:21;;;;;;;5.93;2.00;;;13.00;99.90;;;;;;5098800;28;20032;-65
2023/01/04 15:12:47;;;;;;;7.18;2.13;;;13.00;99.90;;;;;;5093005;28;20137;-63
2023/01/04 15:15:12;;;;;;;5.93;2.35;;;13.00;99.90;;;;;;5092085;28;20028;-63
2023/01/04 15:17:38;;;;;;;5.00;2.33;;;13.00;99.90;;;;;;5091328;28;20028;-68
2023/01/04 15:20:05;;;;;;;5.47;2.55;;;13.00;99.90;;;;;;5096335;28;20028;-61
2023/01/04 15:22:30;;;;;;;5.38;1.95;;;13.00;99.90;;;;;;5095993;28;20032;-68
2023/01/04 15:24:56;;;;;;;4.55;2.35;;;13.00;99.90;;;;;;5096880;28;20020;-65
2023/01/04 15:27:21;;;;;;;6.50;2.33;;;13.00;99.90;;;;;;5096611;28;20020;-69
2023/01/04 15:29:47;;;;;;;10.50;2.58;;;13.00;99.90;;;;;;5095880;28;20088;-69
2023/01/04 15:32:13;;;;;;;7.85;3.13;;;12.90;99.90;;;;;;5096446;28;20028;-67
2023/01/04 15:34:38;;;;;;;8.13;2.35;;;12.90;99.90;;;;;;5096463;28;20043;-65
2023/01/04 15:37:04;;;;;;;6.88;2.55;;;12.90;99.90;;;;;;5095880;28;20417;-61
2023/01/04 15:39:29;;;;;;;7.50;3.03;;;12.90;99.90;;;;;;5096472;28;20050;-62
2023/01/04 15:44:39;;;;;;;4.68;2.60;;;12.90;99.90;;;;;;5111703;28;20128;-61
2023/01/04 15:47:05;;;;;;;6.10;2.55;;;12.90;99.90;;;;;;5097140;28;20028;-60
2023/01/04 15:49:30;;;;;;;9.27;2.80;;;12.90;99.90;;;;;;5095635;28;20031;-61
2023/01/04 15:51:56;;;;;;;7.75;2.70;;;12.90;99.90;;;;;;5096087;28;20028;-61
2023/01/04 15:54:26;;;;;;;5.57;2.40;;;12.90;99.90;;;;;;5096120;28;20026;-62
2023/01/04 15:56:51;;;;;;;13.68;3.15;;;12.90;99.90;;;;;;5095253;28;20055;-65
2023/01/04 15:59:17;;;;;;;9.45;2.50;;;12.80;99.90;;;;;;5096410;28;20380;-62
2023/01/04 16:01:43;;;;;;;8.18;2.20;;;12.90;99.90;;;;;;5096096;28;20031;-64
2023/01/04 16:04:10;;;;;;;9.55;2.40;;;12.90;99.90;;;;;;5094625;28;20378;-67
2023/01/04 16:06:36;;;;;;;8.30;2.35;;;12.90;99.90;;;;;;5095046;28;20146;-61
2023/01/04 16:09:02;;;;;;;8.27;2.60;;;12.80;99.90;;;;;;5095276;28;20044;-61
2023/01/04 16:11:28;;;;;;;10.70;2.65;;;12.80;99.90;;;;;;5097174;28;20024;-62
2023/01/04 16:13:54;;;;;;;8.07;2.47;;;12.70;99.90;;;;;;5104241;28;20020;-60
2023/01/04 16:16:21;;;;;;;7.63;2.50;;;12.70;99.90;;;;;;5110688;28;20023;-61
2023/01/04 16:18:52;;;;;;;7.90;2.55;;;12.70;99.90;;;;;;5109302;28;20029;-63
2023/01/04 16:21:24;;;;;;;15.10;2.97;;;12.70;99.90;;;;;;5082998;28;20039;-63
2023/01/04 16:23:51;;;;;;;13.07;3.35;;;12.60;99.90;;;;;;5108658;28;20110;-63
2023/01/04 16:26:16;;;;;;;15.98;2.83;;;12.60;99.90;;;;;;5114909;28;20483;-67
2023/01/04 16:28:42;;;;;;;11.65;2.53;;;12.70;99.90;;;;;;5102753;28;20036;-62
2023/01/04 16:31:08;;;;;;;15.82;3.33;;;12.60;99.90;;;;;;5074450;28;20042;-63
2023/01/04 16:33:34;;;;;;;12.30;2.53;;;12.70;99.90;;;;;;5072843;28;20025;-64
2023/01/04 16:36:05;;;;;;;7.13;2.30;;;12.60;99.90;;;;;;5093831;28;20024;-62
2023/01/04 16:38:34;;;;;;;;;;;12.70;99.90;;;;;;5074691;28;20036;-63
2023/01/04 16:41:01;;;;;;;12.68;2.25;;;12.60;99.90;;;;;;5074221;28;20058;-61
2023/01/04 16:43:27;;;;;;;12.90;2.75;;;12.60;99.90;;;;;;5074283;28;20017;-61
2023/01/04 16:46:16;;;;;;;11.13;2.83;;;12.60;99.90;;;;;;5074275;28;20029;-62
2023/01/04 16:48:43;;;;;;;15.63;3.17;;;12.60;99.90;;;;;;5078357;28;20025;-65
2023/01/04 16:51:09;;;;;;;10.98;2.78;;;12.60;99.90;;;;;;5073865;28;20485;-64
2023/01/04 16:53:35;;;;;;;15.55;3.75;;;12.60;99.90;;;;;;5081752;28;20055;-66
2023/01/04 16:56:09;;;;;;;13.07;3.35;;;12.60;99.90;;;;;;5090171;28;20051;-62
2023/01/04 16:58:35;;;;;;;13.63;2.70;;;12.60;99.90;;;;;;5093176;28;20135;-63
2023/01/04 17:01:06;;;;;;;13.30;2.97;;;12.60;99.90;;;;;;5093321;28;20100;-64
2023/01/04 17:03:31;;;;;;;10.90;2.40;;;12.60;99.90;;;;;;5093204;28;20056;-62
2023/01/04 17:05:57;;;;;;;9.98;3.13;;;12.50;99.90;;;;;;5091957;28;20808;-61
2023/01/04 17:08:23;;;;;;;11.45;2.53;;;12.50;99.90;;;;;;5093389;28;20377;-61
2023/01/04 17:10:48;;;;;;;17.65;2.83;;;12.50;99.90;;;;;;5092768;28;20020;-64
2023/01/04 17:13:14;;;;;;;13.90;2.78;;;12.60;99.90;;;;;;5093965;28;20141;-63
2023/01/04 17:15:40;;;;;;;17.20;3.35;;;12.60;99.90;;;;;;5092874;28;20032;-65
2023/01/04 17:18:05;;;;;;;16.17;3.25;;;12.60;99.90;;;;;;5092417;28;20169;-67
2023/01/04 17:20:31;;;;;;;14.40;3.25;;;12.60;99.90;;;;;;5093917;28;20032;-64
2023/01/04 17:22:57;;;;;;;19.65;3.08;;;12.60;99.90;;;;;;5078813;28;20082;-65
2023/01/04 17:25:22;;;;;;;11.88;2.67;;;12.60;99.90;;;;;;5093813;28;20103;-64
2023/01/04 17:27:48;;;;;;;14.32;3.40;;;12.60;99.90;;;;;;5093188;28;20103;-64
2023/01/04 17:30:14;;;;;;;8.18;2.55;;;12.60;99.90;;;;;;5075020;28;20465;-65
2023/01/04 17:32:39;;;;;;;14.82;3.13;;;12.60;99.90;;;;;;5073044;28;20079;-65
2023/01/04 17:35:05;;;;;;;14.43;2.97;;;12.60;99.90;;;;;;5081067;28;20428;-65
2023/01/04 17:37:32;;;;;;;13.68;3.88;;;12.60;99.90;;;;;;5093331;28;20438;-64
2023/01/04 17:39:57;;;;;;;12.48;3.45;;;12.50;99.90;;;;;;5093220;28;20099;-66
2023/01/04 17:42:23;;;;;;;15.88;2.92;;;12.50;99.90;;;;;;5091959;28;20056;-64
2023/01/04 17:44:49;;;;;;;13.23;2.50;;;12.50;99.90;;;;;;5091853;28;20050;-64
2023/01/04 17:47:14;;;;;;;17.02;3.30;;;12.50;99.90;;;;;;5093147;28;20073;-65
2023/01/04 17:49:40;;;;;;;10.45;2.75;;;12.40;99.90;;;;;;5091170;28;20091;-64
2023/01/04 17:52:05;;;;;;;14.32;2.85;;;12.40;99.90;;;;;;5093464;28;20393;-65
2023/01/04 17:54:31;;;;;;;12.93;3.28;;;12.40;99.90;;;;;;5076228;28;20097;-64
2023/01/04 17:56:57;;;;;;;12.02;2.42;;;12.40;99.90;;;;;;5090610;28;20131;-63
2023/01/04 17:59:22;;;;;;;16.55;4.15;;;12.40;99.90;;;;;;5092921;28;20028;-63
2023/01/04 18:01:48;;;;;;;16.42;3.85;;;12.40;99.90;;;;;;5093000;28;20024;-63
2023/01/04 18:04:13;;;;;;;14.02;2.40;;;12.40;99.90;;;;;;5083682;28;20040;-63
2023/01/04 18:06:39;;;;;;;21.85;3.03;;;12.40;99.90;;;;;;5072607;28;20038;-64
2023/01/04 18:09:06;;;;;;;12.88;2.80;;;12.40;99.90;;;;;;5072717;28;20074;-64
2023/01/04 18:11:32;;;;;;;18.85;3.40;;;12.40;99.90;;;;;;5082033;28;20052;-65
2023/01/04 18:13:58;;;;;;;10.75;2.63;;;12.30;99.90;;;;;;5084003;28;20482;-66
2023/01/04 18:16:27;;;;;;;14.40;3.85;;;12.40;99.90;;;;;;5072362;28;20439;-66
2023/01/04 18:18:54;;;;;;;14.75;3.20;;;12.40;99.90;;;;;;5078982;28;20021;-64
2023/01/04 18:21:25;;;;;;;13.15;2.92;;;12.40;99.90;;;;;;5073366;28;20046;-65
2023/01/04 18:58:12;;;;;;;24.02;4.53;;;11.30;99.90;;;;;;5045978;27;1236255;-63
2023/01/04 19:00:37;;;;;;;16.35;3.17;;;11.30;99.90;;;;;;5068113;28;20029;-64
2023/01/04 19:03:03;;;;;;;24.50;3.70;;;11.40;99.90;;;;;;5067812;28;20377;-63
2023/01/04 19:05:29;;;;;;;20.77;4.38;;;11.50;99.90;;;;;;5056453;28;20029;-63
2023/01/04 19:07:54;;;;;;;21.67;4.07;;;11.60;99.90;;;;;;5048517;28;20136;-63
2023/01/04 19:10:20;;;;;;;28.77;5.13;;;11.60;99.90;;;;;;5049207;28;20028;-63
2023/01/04 19:12:46;;;;;;;21.15;5.07;;;11.70;99.90;;;;;;5050524;28;20029;-63
2023/01/04 19:15:12;;;;;;;24.95;3.85;;;11.80;99.90;;;;;;5048534;28;20033;-64
2023/01/04 19:17:37;;;;;;;18.55;3.83;;;11.90;99.90;;;;;;5057372;28;20416;-63
2023/01/04 19:20:03;;;;;;;21.27;4.85;;;11.80;99.90;;;;;;5068766;28;20061;-64
2023/01/04 19:22:29;;;;;;;22.92;4.22;;;11.80;99.90;;;;;;5067998;28;20386;-64
2023/01/04 19:24:55;;;;;;;23.08;4.03;;;11.70;99.90;;;;;;5068574;28;20028;-64
2023/01/04 19:27:20;;;;;;;24.35;5.57;;;11.70;99.90;;;;;;5055839;28;20032;-64
2023/01/04 19:29:46;;;;;;;26.88;4.97;;;11.70;99.90;;;;;;5048305;28;20025;-65
2023/01/04 19:32:12;;;;;;;15.27;4.10;;;11.70;99.90;;;;;;5066453;28;20109;-64
2023/01/04 19:34:37;;;;;;;21.00;4.40;;;11.70;99.90;;;;;;5068086;28;20055;-65
2023/01/04 19:37:03;;;;;;;26.75;5.30;;;11.70;99.90;;;;;;5068530;28;20116;-65
2023/01/04 19:39:29;;;;;;;22.63;4.57;;;11.70;99.90;;;;;;5068446;28;20458;-63
2023/01/04 19:41:55;;;;;;;16.05;3.85;;;11.70;99.90;;;;;;5067413;28;20537;-64
2023/01/04 19:44:21;;;;;;;25.75;4.68;;;11.70;99.90;;;;;;5068085;28;20055;-64
2023/01/04 19:46:46;;;;;;;24.83;5.45;;;11.70;99.90;;;;;;5051463;28;20177;-64
2023/01/04 19:49:12;;;;;;;23.10;5.03;;;11.60;99.90;;;;;;5053797;28;20025;-63
2023/01/04 19:51:38;;;;;;;25.95;3.80;;;11.70;99.90;;;;;;5068147;28;20021;-64
2023/01/04 19:54:03;;;;;;;21.85;4.65;;;11.60;99.90;;;;;;5050309;28;20566;-64
2023/01/04 19:56:29;;;;;;;22.50;4.13;;;11.60;99.90;;;;;;5065594;28;20041;-64
2023/01/04 19:58:55;;;;;;;24.38;4.68;;;11.60;99.90;;;;;;5067306;28;20401;-62
2023/01/04 20:01:21;;;;;;;20.48;4.30;;;11.60;99.90;;;;;;5067929;28;20024;-64
